Time;durP1;ratioP1;P1;durP2;ratioP2;P2;SDS_P1;SDS_P2;PMS_P1;PMS_P2;Temp;Humidity;BMP_temperature;BMP_pressure;BME280_temperature;BME280_humidity;BME280_pressure;Samples;Min_cycle;Max_cycle;Signal;HPM_P1;HPM_P2
2022/07/21 00:00:28;;;;;;;23.87;18.80;;;21.80;99.90;;;;;;5041331;28;20480;-48
2022/07/21 00:02:56;;;;;;;25.40;18.33;;;21.70;99.90;;;;;;5027960;28;20479;-48
2022/07/21 00:05:24;;;;;;;23.40;19.07;;;21.70;99.90;;;;;;5040235;28;20488;-48
2022/07/21 00:07:51;;;;;;;28.67;18.03;;;21.70;99.90;;;;;;5037155;28;20487;-48
2022/07/21 00:10:19;;;;;;;22.10;19.13;;;21.70;99.90;;;;;;5040471;28;20913;-48
2022/07/21 00:12:46;;;;;;;20.37;16.43;;;21.60;99.90;;;;;;5041026;28;20479;-48
2022/07/21 00:15:14;;;;;;;22.30;18.03;;;21.60;99.90;;;;;;5039555;28;20495;-48
2022/07/21 00:17:42;;;;;;;23.70;17.97;;;21.50;99.90;;;;;;5035102;28;20483;-48
2022/07/21 00:20:11;;;;;;;22.40;17.30;;;21.40;99.90;;;;;;5037006;28;20506;-49
2022/07/21 00:22:38;;;;;;;23.47;17.57;;;21.40;99.90;;;;;;5041142;28;20823;-48
2022/07/21 00:25:06;;;;;;;27.10;19.00;;;21.20;99.90;;;;;;5035127;28;20499;-48
2022/07/21 00:27:33;;;;;;;21.30;17.70;;;21.20;99.90;;;;;;5033340;28;20483;-49
2022/07/21 00:30:00;;;;;;;31.80;18.43;;;21.30;99.90;;;;;;5038635;28;20488;-48
2022/07/21 00:32:27;;;;;;;25.67;18.37;;;21.30;99.90;;;;;;5039635;28;20527;-48
2022/07/21 00:34:55;;;;;;;22.00;18.40;;;21.30;99.90;;;;;;5038082;28;20482;-47
2022/07/21 00:37:23;;;;;;;22.23;17.03;;;21.20;99.90;;;;;;5035691;28;20478;-49
2022/07/21 00:39:50;;;;;;;21.17;16.97;;;21.20;99.90;;;;;;5036932;28;20487;-48
2022/07/21 00:42:22;;;;;;;23.97;18.03;;;21.30;99.90;;;;;;5038946;28;20491;-50
2022/07/21 00:44:49;;;;;;;21.73;18.40;;;21.20;99.90;;;;;;5042713;28;21225;-47
2022/07/21 00:47:19;;;;;;;28.20;20.20;;;21.20;99.90;;;;;;5041902;28;20476;-48
2022/07/21 00:49:46;;;;;;;23.03;18.83;;;21.20;99.90;;;;;;5043122;28;20476;-48
2022/07/21 00:52:14;;;;;;;21.13;16.80;;;21.20;99.90;;;;;;5037258;28;20491;-49
2022/07/21 00:54:41;;;;;;;26.07;17.83;;;21.30;99.90;;;;;;5034657;28;20488;-49
2022/07/21 00:57:08;;;;;;;19.07;16.80;;;21.30;99.90;;;;;;5053807;28;20483;-48
2022/07/21 00:59:35;;;;;;;22.40;17.80;;;21.30;99.90;;;;;;5045288;28;20806;-48
2022/07/21 01:02:02;;;;;;;19.90;16.00;;;21.30;99.90;;;;;;5049384;28;20463;-49
2022/07/21 01:04:29;;;;;;;24.17;18.10;;;21.30;99.90;;;;;;5042897;28;21065;-48
2022/07/21 01:06:56;;;;;;;18.40;15.47;;;21.30;99.90;;;;;;5056394;28;20494;-48
2022/07/21 01:09:24;;;;;;;22.87;17.37;;;21.40;99.90;;;;;;5043044;28;20553;-48
2022/07/21 01:11:51;;;;;;;24.33;19.20;;;21.40;99.90;;;;;;5038934;28;20532;-49
2022/07/21 01:14:17;;;;;;;22.13;18.10;;;21.40;99.90;;;;;;5035085;28;20516;-50
2022/07/21 01:16:45;;;;;;;26.17;18.37;;;21.40;99.90;;;;;;5044474;28;20479;-48
2022/07/21 01:19:12;;;;;;;21.30;17.60;;;21.20;99.90;;;;;;5053404;28;20493;-48
2022/07/21 01:21:42;;;;;;;22.00;17.67;;;21.20;99.90;;;;;;5057674;28;20475;-48
2022/07/21 01:24:09;;;;;;;27.00;19.67;;;21.20;99.90;;;;;;5040972;28;20479;-49
2022/07/21 01:26:42;;;;;;;22.93;17.83;;;21.20;99.90;;;;;;5041108;28;20854;-48
2022/07/21 01:29:10;;;;;;;24.50;18.87;;;21.20;99.90;;;;;;5043450;28;20481;-49
2022/07/21 01:31:37;;;;;;;23.33;18.23;;;21.10;99.90;;;;;;5041238;28;20541;-49
2022/07/21 01:34:05;;;;;;;23.67;18.20;;;21.00;99.90;;;;;;5039976;28;20494;-49
2022/07/21 01:36:32;;;;;;;23.90;18.60;;;20.90;99.90;;;;;;5031272;28;20473;-49
2022/07/21 01:41:44;;;;;;;24.97;17.10;;;20.80;99.90;;;;;;5037466;28;20479;-48
2022/07/21 01:44:13;;;;;;;23.70;17.40;;;20.90;99.90;;;;;;5041623;28;20643;-48
2022/07/21 01:46:43;;;;;;;21.60;17.93;;;20.90;99.90;;;;;;5039606;28;20484;-48
2022/07/21 01:49:11;;;;;;;22.77;17.77;;;20.90;99.90;;;;;;5041051;28;20870;-48
2022/07/21 01:51:38;;;;;;;22.83;18.50;;;20.90;99.90;;;;;;5040942;28;20480;-48
2022/07/21 01:54:07;;;;;;;24.07;19.00;;;20.80;99.90;;;;;;5037753;28;20483;-48
2022/07/21 01:56:35;;;;;;;25.33;20.43;;;20.90;99.90;;;;;;5037656;28;20898;-48
2022/07/21 01:59:02;;;;;;;25.73;17.30;;;20.90;99.90;;;;;;5043046;28;20885;-48
2022/07/21 02:01:30;;;;;;;22.63;18.00;;;21.00;99.90;;;;;;5022228;28;20556;-48
2022/07/21 02:03:58;;;;;;;27.90;19.10;;;21.00;99.90;;;;;;5044397;28;20497;-48
2022/07/21 02:06:24;;;;;;;23.70;18.00;;;21.00;99.90;;;;;;5041176;28;20468;-48
2022/07/21 02:08:51;;;;;;;27.50;19.20;;;;;;;;;;5041795;28;20484;-48
2022/07/21 02:11:20;;;;;;;26.03;19.07;;;21.00;99.90;;;;;;5041347;28;21159;-48
2022/07/21 02:13:47;;;;;;;25.40;19.33;;;20.80;99.90;;;;;;5041561;28;20479;-48
2022/07/21 02:16:14;;;;;;;23.63;19.20;;;20.70;99.90;;;;;;5039714;28;20483;-49
2022/07/21 02:18:42;;;;;;;22.97;17.80;;;20.70;99.90;;;;;;5043655;28;20829;-48
2022/07/21 02:21:09;;;;;;;25.63;17.47;;;20.80;99.90;;;;;;5039982;28;20519;-50
2022/07/21 02:23:36;;;;;;;26.60;18.83;;;20.90;99.90;;;;;;5042199;28;20480;-48
2022/07/21 02:26:03;;;;;;;23.47;18.07;;;20.80;99.90;;;;;;5038005;28;20992;-48
2022/07/21 02:28:31;;;;;;;23.07;18.80;;;20.80;99.90;;;;;;5031951;28;20478;-48
2022/07/21 02:30:58;;;;;;;25.57;17.40;;;20.60;99.90;;;;;;5042018;28;20480;-48
2022/07/21 02:33:25;;;;;;;25.57;18.17;;;20.50;99.90;;;;;;5041274;28;20490;-48
2022/07/21 02:35:51;;;;;;;32.10;21.63;;;20.50;99.90;;;;;;5040300;28;20499;-48
2022/07/21 02:38:18;;;;;;;23.60;18.90;;;20.30;99.90;;;;;;5046826;28;20486;-48
2022/07/21 02:40:45;;;;;;;26.00;18.70;;;20.30;99.90;;;;;;5041976;28;20475;-48
2022/07/21 02:43:12;;;;;;;25.07;20.13;;;20.20;99.90;;;;;;5046568;28;20850;-48
2022/07/21 02:45:41;;;;;;;29.00;20.17;;;20.20;99.90;;;;;;5036468;28;20475;-48
2022/07/21 02:48:09;;;;;;;23.87;19.47;;;20.10;99.90;;;;;;5039506;28;20491;-48
2022/07/21 02:50:38;;;;;;;32.90;20.00;;;20.20;99.90;;;;;;5042081;28;20484;-48
2022/07/21 02:53:07;;;;;;;23.60;19.33;;;20.20;99.90;;;;;;5031657;28;20906;-48
2022/07/21 02:55:35;;;;;;;25.13;19.10;;;20.20;99.90;;;;;;5026883;28;20835;-48
2022/07/21 02:58:06;;;;;;;25.10;19.47;;;20.20;99.90;;;;;;5041906;28;20506;-48
2022/07/21 03:00:34;;;;;;;27.87;19.23;;;20.20;99.90;;;;;;5030218;28;20983;-48
2022/07/21 03:03:03;;;;;;;24.57;18.67;;;20.20;99.90;;;;;;5039024;28;20475;-48
2022/07/21 03:05:30;;;;;;;21.17;18.17;;;20.20;99.90;;;;;;5040809;28;20850;-48
2022/07/21 03:07:57;;;;;;;29.20;18.93;;;20.10;99.90;;;;;;5039744;28;20479;-48
2022/07/21 03:10:24;;;;;;;23.33;17.90;;;20.10;99.90;;;;;;5038598;28;20484;-48
2022/07/21 03:12:51;;;;;;;31.73;18.63;;;20.20;99.90;;;;;;5043016;28;20485;-47
2022/07/21 03:15:17;;;;;;;26.23;18.77;;;20.20;99.90;;;;;;5036427;28;20497;-49
2022/07/21 03:17:44;;;;;;;22.33;17.27;;;20.30;99.90;;;;;;5033205;28;21218;-48
2022/07/21 03:20:13;;;;;;;27.07;19.83;;;20.30;99.90;;;;;;5040235;28;20486;-48
2022/07/21 03:22:40;;;;;;;23.50;18.00;;;20.30;99.90;;;;;;5041435;28;20571;-48
2022/07/21 03:25:08;;;;;;;27.37;19.60;;;20.20;99.90;;;;;;5037176;28;20479;-48
2022/07/21 03:27:36;;;;;;;22.63;17.27;;;20.20;99.90;;;;;;5038446;28;20991;-48
2022/07/21 03:30:08;;;;;;;26.53;20.03;;;20.20;99.90;;;;;;5040659;28;20539;-48
2022/07/21 03:32:35;;;;;;;22.97;17.83;;;20.20;99.90;;;;;;5061232;28;20487;-48
2022/07/21 03:35:03;;;;;;;26.73;19.87;;;20.30;99.90;;;;;;5039830;28;20486;-47
2022/07/21 03:37:31;;;;;;;23.27;16.70;;;20.40;99.90;;;;;;5036311;28;20731;-48
2022/07/21 03:39:59;;;;;;;22.90;18.70;;;20.40;99.90;;;;;;5039403;28;20487;-47
2022/07/21 03:42:26;;;;;;;20.67;16.73;;;20.40;99.90;;;;;;5044315;28;20482;-48
2022/07/21 03:44:52;;;;;;;35.33;19.70;;;20.40;99.90;;;;;;5039418;28;20495;-47
2022/07/21 03:47:19;;;;;;;23.50;18.60;;;20.40;99.90;;;;;;5039366;28;20958;-48
2022/07/21 03:49:46;;;;;;;21.53;17.73;;;20.40;99.90;;;;;;5039641;28;20978;-48
2022/07/21 03:52:12;;;;;;;22.27;17.20;;;20.50;99.90;;;;;;5037796;28;21019;-48
2022/07/21 03:54:40;;;;;;;21.70;17.27;;;20.50;99.90;;;;;;5040667;28;20807;-48
2022/07/21 03:57:07;;;;;;;24.40;17.70;;;20.50;99.90;;;;;;5034801;28;20483;-48
2022/07/21 03:59:34;;;;;;;20.93;16.93;;;20.60;99.90;;;;;;5038172;28;20494;-48
2022/07/21 04:02:00;;;;;;;22.90;16.50;;;20.60;99.90;;;;;;5036164;28;20510;-48
2022/07/21 04:04:27;;;;;;;20.73;16.40;;;20.70;99.90;;;;;;5038790;28;20859;-48
2022/07/21 04:06:54;;;;;;;23.37;18.73;;;20.70;99.90;;;;;;5037679;28;20487;-48
2022/07/21 04:09:21;;;;;;;25.70;17.90;;;20.70;99.90;;;;;;5037320;28;20484;-48
2022/07/21 04:11:49;;;;;;;23.00;17.13;;;20.70;99.90;;;;;;5038004;28;20478;-48
2022/07/21 04:14:15;;;;;;;23.90;18.00;;;20.80;99.90;;;;;;5038251;28;20492;-48
2022/07/21 04:16:42;;;;;;;28.30;19.57;;;20.70;99.90;;;;;;5038094;28;20480;-48
2022/07/21 04:19:09;;;;;;;21.63;17.60;;;20.70;99.90;;;;;;5039495;28;21016;-48
2022/07/21 04:21:36;;;;;;;27.87;19.00;;;20.80;99.90;;;;;;5040162;28;20475;-48
2022/07/21 04:24:02;;;;;;;23.03;19.00;;;20.90;99.90;;;;;;5039593;28;20484;-48
2022/07/21 04:26:29;;;;;;;24.57;18.30;;;20.90;99.90;;;;;;5036858;28;20896;-48
2022/07/21 04:28:57;;;;;;;27.60;19.07;;;21.00;99.90;;;;;;5035859;28;20490;-48
2022/07/21 04:31:24;;;;;;;27.53;19.63;;;21.00;99.90;;;;;;5037973;28;20490;-48
2022/07/21 04:33:51;;;;;;;26.07;20.20;;;21.10;99.90;;;;;;5037579;28;20480;-48
2022/07/21 04:36:17;;;;;;;31.07;22.60;;;21.10;99.90;;;;;;5036568;28;20483;-48
2022/07/21 04:38:44;;;;;;;25.97;20.00;;;21.00;99.90;;;;;;5035544;28;20484;-48
2022/07/21 04:41:11;;;;;;;28.67;21.03;;;20.90;99.90;;;;;;5039965;28;20479;-48
2022/07/21 04:43:38;;;;;;;29.57;18.00;;;20.80;99.90;;;;;;5039778;28;20480;-48
2022/07/21 04:46:06;;;;;;;26.03;21.67;;;20.80;99.90;;;;;;5037983;28;20479;-48
2022/07/21 04:48:33;;;;;;;28.00;19.47;;;20.80;99.90;;;;;;5039488;28;20521;-48
2022/07/21 04:51:00;;;;;;;30.33;21.93;;;20.80;99.90;;;;;;5039232;28;20480;-48
2022/07/21 04:53:26;;;;;;;28.13;21.83;;;20.80;99.90;;;;;;5039220;28;20479;-48
2022/07/21 04:55:53;;;;;;;23.00;18.67;;;20.70;99.90;;;;;;5038686;28;20486;-48
2022/07/21 04:58:20;;;;;;;25.67;19.07;;;20.80;99.90;;;;;;5040908;28;20472;-48
2022/07/21 05:00:46;;;;;;;30.77;20.93;;;20.80;99.90;;;;;;5039316;28;20487;-48
2022/07/21 05:03:15;;;;;;;27.77;19.57;;;20.80;99.90;;;;;;5032897;28;20490;-49
2022/07/21 05:05:41;;;;;;;24.33;18.40;;;20.80;99.90;;;;;;5039292;28;20483;-48
2022/07/21 05:08:08;;;;;;;22.80;17.43;;;20.80;99.90;;;;;;5036672;28;21066;-48
2022/07/21 05:10:35;;;;;;;25.80;19.17;;;20.90;99.90;;;;;;5038396;28;20490;-48
2022/07/21 05:13:02;;;;;;;20.40;16.60;;;20.90;99.90;;;;;;5038323;28;20487;-48
2022/07/21 05:15:29;;;;;;;22.13;18.30;;;20.90;99.90;;;;;;5035721;28;20492;-47
2022/07/21 05:17:55;;;;;;;20.40;17.67;;;20.70;99.90;;;;;;5040841;28;20485;-48
2022/07/21 05:20:23;;;;;;;23.43;17.30;;;20.70;99.90;;;;;;5038906;28;20732;-48
2022/07/21 05:22:50;;;;;;;27.43;17.03;;;20.80;99.90;;;;;;5034361;28;21015;-48
2022/07/21 05:25:17;;;;;;;20.00;16.47;;;20.90;99.90;;;;;;5049863;28;20480;-48
2022/07/21 05:27:44;;;;;;;19.00;15.70;;;20.90;99.90;;;;;;5037896;28;20486;-48
2022/07/21 05:30:11;;;;;;;21.50;16.63;;;21.00;99.90;;;;;;5040960;28;20475;-48
2022/07/21 05:32:38;;;;;;;20.80;17.07;;;21.00;99.90;;;;;;5041921;28;20964;-48
2022/07/21 05:35:10;;;;;;;24.03;17.00;;;20.90;99.90;;;;;;5038781;28;20834;-48
2022/07/21 05:37:39;;;;;;;20.87;17.10;;;20.90;99.90;;;;;;5040700;28;20490;-48
2022/07/21 05:40:07;;;;;;;25.47;16.53;;;20.90;99.90;;;;;;5042290;28;20488;-48
2022/07/21 05:42:34;;;;;;;23.20;18.13;;;21.00;99.90;;;;;;5042683;28;21045;-48
2022/07/21 05:45:00;;;;;;;27.87;19.23;;;20.90;99.90;;;;;;5039166;28;20478;-48
2022/07/21 05:47:27;;;;;;;29.30;18.87;;;20.90;99.90;;;;;;5042106;28;20586;-49
2022/07/21 05:49:54;;;;;;;26.13;18.70;;;20.90;99.90;;;;;;5038985;28;20999;-48
2022/07/21 05:52:21;;;;;;;20.73;16.43;;;20.90;99.90;;;;;;5034646;28;20482;-49
2022/07/21 05:54:49;;;;;;;24.80;18.90;;;21.00;99.90;;;;;;5059456;28;20483;-48
2022/07/21 05:57:16;;;;;;;25.60;17.00;;;20.90;99.90;;;;;;5036026;28;20472;-48
2022/07/21 05:59:43;;;;;;;23.13;17.30;;;21.00;99.90;;;;;;5020267;28;21004;-47
2022/07/21 06:02:09;;;;;;;30.47;19.50;;;21.00;99.90;;;;;;5033804;28;21070;-48
2022/07/21 06:04:36;;;;;;;25.30;18.57;;;21.10;99.90;;;;;;5037705;28;20498;-48
2022/07/21 06:07:03;;;;;;;23.20;20.20;;;21.10;99.90;;;;;;5035540;28;20487;-48
2022/07/21 06:09:30;;;;;;;25.20;17.80;;;21.10;99.90;;;;;;5053003;28;20488;-47
2022/07/21 06:11:58;;;;;;;21.03;16.53;;;21.20;99.90;;;;;;5040912;28;20472;-48
2022/07/21 06:14:25;;;;;;;24.60;19.83;;;21.40;99.90;;;;;;5039713;28;20482;-48
2022/07/21 06:16:51;;;;;;;24.10;17.83;;;21.50;99.90;;;;;;5031812;28;20877;-47
2022/07/21 06:19:18;;;;;;;25.27;16.80;;;21.50;99.90;;;;;;5034285;28;20476;-48
2022/07/21 06:21:45;;;;;;;25.77;17.83;;;21.60;99.90;;;;;;5041549;28;20486;-48
2022/07/21 06:24:12;;;;;;;27.50;17.70;;;21.60;99.90;;;;;;5048211;28;21263;-48
2022/07/21 06:26:39;;;;;;;25.43;18.03;;;21.70;99.90;;;;;;5038940;28;20487;-48
2022/07/21 06:29:07;;;;;;;29.17;22.10;;;21.80;99.90;;;;;;5040963;28;20508;-48
2022/07/21 06:31:35;;;;;;;33.90;23.70;;;21.70;99.90;;;;;;5032842;28;20823;-48
2022/07/21 06:34:01;;;;;;;32.70;24.40;;;21.70;99.90;;;;;;5053927;28;20485;-48
2022/07/21 06:36:28;;;;;;;37.43;25.40;;;21.70;99.90;;;;;;5039770;28;20483;-48
2022/07/21 06:38:55;;;;;;;34.10;25.37;;;21.80;99.90;;;;;;5040759;28;20843;-48
2022/07/21 06:41:21;;;;;;;31.07;25.40;;;21.90;99.90;;;;;;5040789;28;21553;-48
2022/07/21 06:43:48;;;;;;;32.20;25.17;;;21.90;99.90;;;;;;5041773;28;20829;-48
2022/07/21 06:46:16;;;;;;;34.73;27.23;;;22.00;99.90;;;;;;5035269;28;20480;-48
2022/07/21 06:48:43;;;;;;;34.73;27.20;;;21.90;99.90;;;;;;5029939;28;20525;-48
2022/07/21 06:51:10;;;;;;;36.63;27.07;;;22.00;99.90;;;;;;5042839;28;20491;-49
2022/07/21 06:53:36;;;;;;;41.23;29.80;;;22.00;99.90;;;;;;5038016;28;21058;-48
2022/07/21 06:56:04;;;;;;;34.57;26.50;;;21.90;99.90;;;;;;5034224;28;20475;-48
2022/07/21 06:58:32;;;;;;;34.67;26.53;;;21.90;99.90;;;;;;5041387;28;20506;-50
2022/07/21 07:00:59;;;;;;;35.50;26.87;;;22.00;99.90;;;;;;5035070;28;20489;-48
2022/07/21 07:03:27;;;;;;;35.60;26.97;;;22.00;99.90;;;;;;5040928;28;20476;-49
2022/07/21 07:05:54;;;;;;;38.37;29.33;;;22.20;99.90;;;;;;5038398;28;20499;-48
2022/07/21 07:08:21;;;;;;;32.80;26.60;;;22.30;99.90;;;;;;5041706;28;20488;-50
2022/07/21 07:10:47;;;;;;;34.23;27.83;;;22.50;99.90;;;;;;5037448;28;20487;-49
2022/07/21 07:13:15;;;;;;;31.97;27.33;;;22.60;99.90;;;;;;5036917;28;20495;-49
2022/07/21 07:15:42;;;;;;;32.60;25.10;;;22.80;99.90;;;;;;5038115;28;20507;-49
2022/07/21 07:18:09;;;;;;;34.63;26.47;;;22.90;99.90;;;;;;5039833;28;20550;-48
2022/07/21 07:20:37;;;;;;;28.70;24.87;;;22.80;99.90;;;;;;5037090;28;20472;-48
2022/07/21 07:23:04;;;;;;;27.50;23.63;;;22.80;99.90;;;;;;5015070;28;20479;-49
2022/07/21 07:25:31;;;;;;;26.63;23.43;;;22.80;99.90;;;;;;5028027;28;20491;-48
2022/07/21 07:27:58;;;;;;;28.93;25.80;;;22.80;99.90;;;;;;5030133;28;20490;-48
2022/07/21 07:30:25;;;;;;;27.07;22.40;;;22.80;99.60;;;;;;5039964;28;20492;-48
2022/07/21 07:32:51;;;;;;;26.13;22.07;;;22.90;99.90;;;;;;5045733;28;20836;-48
2022/07/21 07:35:18;;;;;;;24.80;22.20;;;22.90;99.90;;;;;;5035633;28;20774;-48
2022/07/21 07:37:47;;;;;;;25.83;21.00;;;23.10;99.90;;;;;;5040872;28;20471;-48
2022/07/21 07:40:16;;;;;;;24.20;19.40;;;23.30;99.70;;;;;;5036941;28;20506;-49
2022/07/21 07:42:44;;;;;;;19.00;16.80;;;23.20;99.20;;;;;;5070262;28;20475;-47
2022/07/21 07:45:11;;;;;;;26.80;18.83;;;23.20;98.40;;;;;;5038909;28;20467;-50
2022/07/21 07:47:38;;;;;;;20.40;18.03;;;23.30;98.40;;;;;;5043209;28;20483;-48
2022/07/21 07:50:06;;;;;;;20.80;18.60;;;;;;;;;;5044994;28;20919;-50
2022/07/21 07:52:33;;;;;;;23.63;18.63;;;23.30;98.60;;;;;;5042603;28;21070;-48
2022/07/21 07:55:03;;;;;;;23.23;18.60;;;23.40;99.20;;;;;;5039632;28;21008;-49
2022/07/21 07:57:30;;;;;;;20.90;17.03;;;23.60;98.30;;;;;;5042840;28;20483;-48
2022/07/21 07:59:57;;;;;;;19.27;17.17;;;23.90;98.60;;;;;;5042437;28;20483;-48
2022/07/21 08:02:24;;;;;;;24.20;15.27;;;23.80;97.80;;;;;;5043493;28;20953;-48
2022/07/21 08:04:50;;;;;;;21.70;14.53;;;23.70;96.90;;;;;;5042578;28;20475;-48
2022/07/21 08:07:17;;;;;;;18.63;14.57;;;23.70;97.40;;;;;;5034587;28;20877;-48
2022/07/21 08:09:44;;;;;;;16.63;14.83;;;23.60;97.50;;;;;;5046129;28;20891;-48
2022/07/21 08:12:12;;;;;;;15.20;13.57;;;23.60;97.20;;;;;;5044678;28;20481;-48
2022/07/21 08:14:39;;;;;;;16.73;14.20;;;24.00;96.90;;;;;;5041494;28;20472;-49
2022/07/21 08:17:07;;;;;;;18.03;13.10;;;24.10;96.90;;;;;;5041644;28;20558;-48
2022/07/21 08:19:33;;;;;;;14.87;12.67;;;24.30;97.20;;;;;;5043808;28;20485;-48
2022/07/21 08:22:01;;;;;;;16.43;11.80;;;24.40;95.90;;;;;;5041825;28;20479;-48
2022/07/21 08:24:27;;;;;;;13.93;11.07;;;24.50;95.80;;;;;;5045110;28;20480;-48
2022/07/21 08:26:54;;;;;;;11.83;9.63;;;24.50;95.60;;;;;;5039043;28;20482;-50
2022/07/21 08:29:22;;;;;;;15.53;10.07;;;24.50;94.50;;;;;;5041923;28;20778;-48
2022/07/21 08:31:49;;;;;;;12.43;11.13;;;24.80;94.60;;;;;;5041651;28;20470;-48
2022/07/21 08:34:16;;;;;;;13.83;10.17;;;25.00;94.40;;;;;;5044018;28;20483;-49
2022/07/21 08:36:43;;;;;;;11.33;10.10;;;25.10;94.30;;;;;;5041409;28;20475;-49
2022/07/21 08:39:09;;;;;;;10.57;7.93;;;25.10;93.60;;;;;;5043631;28;20478;-49
2022/07/21 08:41:37;;;;;;;10.07;8.23;;;25.40;93.80;;;;;;5045207;28;20482;-49
2022/07/21 08:44:03;;;;;;;10.40;9.40;;;25.40;91.90;;;;;;5043357;28;20613;-48
2022/07/21 08:46:33;;;;;;;11.70;10.50;;;25.40;92.40;;;;;;5036902;28;20992;-49
2022/07/21 08:49:03;;;;;;;9.53;8.63;;;25.40;91.90;;;;;;5043345;28;20484;-48
2022/07/21 08:51:33;;;;;;;10.73;9.40;;;25.40;92.20;;;;;;5043692;28;20479;-49
2022/07/21 08:53:59;;;;;;;10.07;9.07;;;25.40;92.10;;;;;;5039613;28;20873;-49
2022/07/21 08:56:26;;;;;;;11.53;8.90;;;25.30;92.30;;;;;;5036832;28;20483;-49
2022/07/21 08:58:53;;;;;;;12.07;9.57;;;25.40;93.30;;;;;;5041743;28;20825;-48
2022/07/21 09:01:23;;;;;;;11.67;10.10;;;25.50;93.60;;;;;;5043864;28;20491;-49
2022/07/21 09:03:52;;;;;;;10.37;9.27;;;25.60;92.20;;;;;;5044000;28;20513;-48
2022/07/21 09:06:19;;;;;;;10.33;9.23;;;25.40;92.10;;;;;;5041023;28;20900;-49
2022/07/21 09:08:48;;;;;;;10.43;9.43;;;25.30;91.70;;;;;;5045956;28;20486;-49
2022/07/21 09:11:21;;;;;;;10.60;8.90;;;25.30;93.30;;;;;;5044421;28;20482;-48
2022/07/21 09:13:51;;;;;;;10.57;7.90;;;25.10;92.60;;;;;;5045913;28;20901;-49
2022/07/21 09:16:34;;;;;;;10.33;8.97;;;25.60;92.70;;;;;;5041125;28;21056;-49
2022/07/21 09:19:03;;;;;;;9.43;8.43;;;25.60;92.30;;;;;;5042307;28;20482;-48
2022/07/21 09:21:30;;;;;;;9.43;7.47;;;25.90;91.70;;;;;;5034553;28;20840;-49
2022/07/21 09:24:12;;;;;;;8.37;7.47;;;26.20;90.50;;;;;;5066658;28;21043;-49
2022/07/21 09:26:57;;;;;;;9.00;8.07;;;26.10;90.00;;;;;;5038291;28;20483;-49
2022/07/21 09:29:24;;;;;;;10.03;8.33;;;26.10;88.70;;;;;;5031566;28;20478;-48
2022/07/21 09:31:51;;;;;;;9.97;8.30;;;26.10;88.30;;;;;;5041673;28;20695;-49
2022/07/21 09:34:20;;;;;;;9.73;6.73;;;26.10;89.30;;;;;;5034009;28;21055;-52
2022/07/21 09:36:55;;;;;;;9.17;8.27;;;26.20;89.80;;;;;;5058759;28;20475;-48
2022/07/21 09:39:41;;;;;;;9.13;7.43;;;26.50;89.90;;;;;;5034144;28;20871;-49
2022/07/21 09:42:20;;;;;;;8.33;7.53;;;26.60;87.90;;;;;;5043688;28;20895;-49
2022/07/21 09:44:49;;;;;;;8.70;7.70;;;26.70;87.00;;;;;;5040198;28;20477;-48
2022/07/21 09:47:19;;;;;;;7.93;7.13;;;26.90;87.60;;;;;;5026075;28;20550;-49
2022/07/21 09:49:47;;;;;;;8.03;7.07;;;27.00;87.20;;;;;;5046397;28;20798;-48
2022/07/21 09:52:30;;;;;;;7.60;6.90;;;26.70;83.40;;;;;;5037531;28;20509;-49
2022/07/21 09:54:59;;;;;;;9.30;6.70;;;26.50;85.40;;;;;;5043108;28;20474;-49
2022/07/21 09:57:27;;;;;;;6.90;6.30;;;26.60;85.40;;;;;;5051992;28;21141;-49
2022/07/21 09:59:54;;;;;;;8.33;7.30;;;26.60;82.40;;;;;;5045111;28;20834;-48
2022/07/21 10:02:23;;;;;;;6.33;5.60;;;26.50;81.60;;;;;;5042943;28;20496;-50
2022/07/21 10:04:57;;;;;;;6.70;6.10;;;26.60;82.20;;;;;;5031432;28;20858;-51
2022/07/21 10:07:24;;;;;;;8.47;6.60;;;26.70;82.40;;;;;;5027498;28;21080;-50
2022/07/21 10:09:51;;;;;;;7.43;6.37;;;26.90;83.60;;;;;;5041688;28;20580;-51
2022/07/21 10:12:18;;;;;;;7.00;6.30;;;26.90;81.70;;;;;;5050052;28;20519;-48
2022/07/21 10:14:46;;;;;;;6.60;6.10;;;26.70;81.10;;;;;;5046902;28;20759;-50
2022/07/21 10:17:14;;;;;;;14.23;6.23;;;26.60;81.10;;;;;;5039896;28;20457;-48
2022/07/21 10:19:47;;;;;;;8.00;6.60;;;26.50;81.50;;;;;;5041519;28;20499;-48
2022/07/21 10:22:24;;;;;;;7.60;6.50;;;26.30;80.80;;;;;;5058149;28;20787;-50
2022/07/21 10:24:51;;;;;;;7.80;7.00;;;26.60;83.40;;;;;;5042322;28;20840;-49
2022/07/21 10:27:21;;;;;;;8.20;6.20;;;26.60;83.00;;;;;;5041650;28;20494;-48
2022/07/21 10:29:56;;;;;;;8.17;7.00;;;26.60;81.60;;;;;;5040163;28;20976;-48
2022/07/21 10:32:27;;;;;;;7.70;6.50;;;26.80;81.80;;;;;;5040004;28;20861;-49
2022/07/21 10:34:54;;;;;;;6.67;6.07;;;27.00;81.80;;;;;;5039727;28;20555;-49
2022/07/21 10:37:45;;;;;;;8.50;6.30;;;27.20;80.70;;;;;;5030921;28;21423;-49
2022/07/21 10:40:37;;;;;;;8.00;7.13;;;27.50;80.00;;;;;;5042358;28;20546;-49
2022/07/21 10:43:41;;;;;;;7.20;6.50;;;27.30;78.80;;;;;;5034234;28;20478;-51
2022/07/21 10:46:35;;;;;;;9.83;6.17;;;27.30;76.70;;;;;;5035659;28;20560;-48
2022/07/21 10:49:02;;;;;;;6.70;6.10;;;27.30;78.60;;;;;;5002789;28;20750;-48
2022/07/21 10:51:32;;;;;;;8.40;6.07;;;27.30;78.10;;;;;;5008480;28;20469;-49
2022/07/21 10:54:28;;;;;;;6.57;5.90;;;27.50;78.10;;;;;;5020029;28;20461;-49
2022/07/21 10:57:27;;;;;;;14.30;7.47;;;27.60;78.50;;;;;;5001974;28;20472;-48
2022/07/21 11:00:23;;;;;;;8.30;5.97;;;27.80;75.30;;;;;;5037188;28;20820;-50
2022/07/21 11:02:53;;;;;;;11.23;6.70;;;27.60;75.90;;;;;;5019429;28;20480;-49
2022/07/21 11:05:19;;;;;;;6.30;5.70;;;27.70;77.60;;;;;;5022768;28;20472;-48
2022/07/21 11:08:16;;;;;;;9.20;5.83;;;27.70;77.60;;;;;;5020132;28;20481;-50
2022/07/21 11:10:46;;;;;;;7.40;6.80;;;27.90;75.30;;;;;;5014082;28;20506;-49
2022/07/21 11:13:14;;;;;;;8.10;6.70;;;27.80;75.30;;;;;;5024383;28;21468;-48
2022/07/21 11:15:45;;;;;;;7.60;6.80;;;27.80;76.10;;;;;;5018529;28;20490;-48
2022/07/21 11:18:16;;;;;;;8.20;6.73;;;27.90;77.00;;;;;;5020545;28;20562;-48
2022/07/21 11:20:43;;;;;;;7.23;6.60;;;28.40;74.60;;;;;;5025762;28;20487;-50
2022/07/21 11:23:10;;;;;;;8.23;6.40;;;28.50;73.80;;;;;;5011656;28;20462;-48
2022/07/21 11:25:37;;;;;;;9.70;7.20;;;28.70;74.90;;;;;;5018232;28;20749;-49
2022/07/21 11:28:17;;;;;;;8.97;8.10;;;28.80;72.70;;;;;;5023003;28;20482;-48
2022/07/21 11:30:44;;;;;;;6.90;6.20;;;29.00;73.60;;;;;;5028175;28;20476;-49
2022/07/21 11:33:10;;;;;;;7.50;6.90;;;28.80;72.80;;;;;;5023770;28;20468;-49
2022/07/21 11:35:38;;;;;;;8.60;7.70;;;28.70;72.80;;;;;;5012341;28;20488;-48
2022/07/21 11:38:05;;;;;;;7.03;6.33;;;28.30;73.10;;;;;;5032234;28;20482;-48
2022/07/21 11:40:32;;;;;;;8.73;7.93;;;28.10;73.40;;;;;;5023909;28;20475;-49
2022/07/21 11:42:58;;;;;;;7.40;6.60;;;27.90;73.50;;;;;;5021581;28;21166;-50
2022/07/21 11:45:28;;;;;;;13.30;7.67;;;27.90;74.20;;;;;;5022379;28;21058;-48
2022/07/21 11:47:54;;;;;;;7.17;6.50;;;28.10;75.30;;;;;;5035939;28;21338;-48
2022/07/21 11:50:21;;;;;;;7.10;6.00;;;28.10;74.70;;;;;;5025594;28;20491;-49
2022/07/21 11:52:48;;;;;;;7.53;6.73;;;28.30;74.60;;;;;;5017891;28;20494;-48
2022/07/21 11:55:16;;;;;;;8.07;7.27;;;28.30;73.00;;;;;;5014093;28;20999;-49
2022/07/21 11:57:44;;;;;;;7.57;6.87;;;28.50;72.10;;;;;;5019334;28;20507;-49
2022/07/21 12:00:12;;;;;;;9.60;7.20;;;28.50;72.20;;;;;;5021059;28;20487;-48
2022/07/21 12:02:41;;;;;;;6.07;5.47;;;28.70;71.80;;;;;;5010067;28;20450;-51
2022/07/21 12:05:09;;;;;;;7.17;6.47;;;28.50;71.60;;;;;;5041840;28;20915;-49
2022/07/21 12:07:39;;;;;;;10.37;7.60;;;28.80;72.30;;;;;;5022749;28;20483;-48
2022/07/21 12:10:09;;;;;;;7.73;6.97;;;29.00;72.30;;;;;;5021555;28;20575;-49
2022/07/21 12:12:37;;;;;;;7.00;6.30;;;;;;;;;;5022831;28;20901;-48
2022/07/21 12:15:16;;;;;;;10.80;7.20;;;28.60;70.40;;;;;;5020315;28;20504;-49
2022/07/21 12:17:46;;;;;;;9.47;7.73;;;28.80;72.00;;;;;;5000277;28;20451;-48
2022/07/21 12:20:14;;;;;;;7.90;7.10;;;29.00;70.70;;;;;;5000987;28;20462;-48
2022/07/21 12:22:43;;;;;;;8.97;7.20;;;29.00;69.70;;;;;;5029511;28;20983;-48
2022/07/21 12:25:12;;;;;;;7.43;6.73;;;29.20;71.70;;;;;;5022424;28;20802;-49
2022/07/21 12:27:41;;;;;;;7.13;6.53;;;29.10;71.90;;;;;;5010747;28;21028;-49
2022/07/21 12:30:30;;;;;;;10.20;7.40;;;29.20;70.90;;;;;;5035447;28;20480;-48
2022/07/21 12:33:04;;;;;;;9.00;6.73;;;29.40;70.70;;;;;;5016294;28;20491;-49
2022/07/21 12:35:31;;;;;;;7.30;5.70;;;29.40;71.50;;;;;;5022649;28;20570;-48
2022/07/21 12:38:04;;;;;;;6.33;5.83;;;29.70;70.20;;;;;;5018989;28;20462;-48
2022/07/21 12:40:32;;;;;;;8.43;6.27;;;29.70;68.70;;;;;;5012660;28;20454;-49
2022/07/21 12:43:07;;;;;;;7.40;6.70;;;29.80;69.60;;;;;;5006959;28;20835;-49